createdAt,value
2019-04-04T09:27:24.155Z,2236.00
2019-04-04T09:28:24.298Z,2240.00
2019-04-04T09:29:25.599Z,2268.00
2019-04-04T09:30:25.884Z,2300.00
2019-04-04T09:31:26.064Z,2304.00
2019-04-04T09:32:27.217Z,2292.00
2019-04-04T09:33:26.332Z,2252.00
2019-04-04T09:34:26.505Z,2188.00
2019-04-04T09:35:26.699Z,2168.00
2019-04-04T09:36:26.884Z,2168.00
2019-04-04T09:37:27.074Z,2168.00
2019-04-04T09:38:29.128Z,2208.00
2019-04-04T09:39:28.450Z,2280.00
2019-04-04T09:40:28.005Z,2308.00
2019-04-04T09:41:27.795Z,2300.00
2019-04-04T09:42:27.973Z,2324.00
2019-04-04T09:43:28.177Z,2376.00
2019-04-04T09:44:28.336Z,2396.00
2019-04-04T09:45:28.509Z,2364.00
2019-04-04T09:46:28.678Z,2324.00
2019-04-04T09:47:28.850Z,2280.00
2019-04-04T09:48:29.077Z,2224.00
2019-04-04T09:49:29.246Z,2132.00
2019-04-04T09:50:29.399Z,2008.00
2019-04-04T09:51:29.531Z,1884.00
2019-04-04T09:52:29.709Z,1796.00
2019-04-04T09:53:29.905Z,1724.00
2019-04-04T09:54:30.084Z,1672.00
2019-04-04T09:55:30.234Z,1664.00
2019-04-04T09:56:30.378Z,1692.00
2019-04-04T09:57:30.539Z,1752.00
2019-04-04T09:58:30.714Z,1840.00
2019-04-04T09:59:30.871Z,1944.00
2019-04-04T10:00:31.032Z,2032.00
2019-04-04T10:01:31.172Z,2092.00
2019-04-04T10:02:31.309Z,2136.00
2019-04-04T10:03:31.429Z,2172.00
2019-04-04T10:04:31.586Z,2188.00
2019-04-04T10:05:31.742Z,2188.00
2019-04-04T10:06:31.894Z,2196.00
2019-04-04T10:07:32.026Z,2216.00
2019-04-04T10:08:32.272Z,2224.00
2019-04-04T10:09:32.433Z,2204.00
2019-04-04T10:10:32.578Z,2224.00
2019-04-04T10:11:32.746Z,2292.00
2019-04-04T10:12:32.889Z,2404.00
2019-04-04T10:13:33.035Z,2544.00
2019-04-04T10:14:33.187Z,2680.00
2019-04-04T10:15:33.327Z,2788.00
2019-04-04T10:16:33.464Z,2900.00
2019-04-04T10:17:33.639Z,3060.00
2019-04-04T10:18:33.780Z,3316.00
2019-04-04T10:19:33.939Z,3600.00
2019-04-04T10:20:34.113Z,3724.00
2019-04-04T10:21:34.296Z,3660.00
2019-04-04T10:22:34.454Z,3556.00
2019-04-04T10:23:34.611Z,3464.00
2019-04-04T10:24:34.750Z,3464.00
2019-04-04T10:25:34.914Z,3668.00
2019-04-04T10:26:35.063Z,3944.00
2019-04-04T10:27:35.215Z,4188.00
2019-04-04T10:28:35.395Z,4224.00
2019-04-04T10:29:35.549Z,3928.00
2019-04-04T10:30:35.741Z,3564.00
2019-04-04T10:31:35.923Z,3336.00
2019-04-04T10:32:36.087Z,3164.00
2019-04-04T10:33:36.247Z,3000.00
2019-04-04T10:34:36.407Z,2840.00
2019-04-04T10:35:36.553Z,2616.00
2019-04-04T10:36:36.736Z,2380.00
2019-04-04T10:37:36.884Z,2220.00
2019-04-04T10:38:37.052Z,2092.00
2019-04-04T10:39:37.205Z,1988.00
2019-04-04T10:40:37.362Z,1908.00
2019-04-04T10:41:37.529Z,1856.00
2019-04-04T10:42:38.018Z,1832.00
2019-04-04T10:43:37.890Z,1840.00
2019-04-04T10:44:38.044Z,1884.00
2019-04-04T10:45:38.235Z,1976.00
2019-04-04T10:46:38.393Z,2120.00
2019-04-04T10:47:38.555Z,2312.00
2019-04-04T10:48:38.717Z,2464.00
2019-04-04T10:49:38.862Z,2604.00
2019-04-04T10:50:39.050Z,2780.00
2019-04-04T10:51:39.246Z,2924.00
2019-04-04T10:52:39.523Z,3016.00
2019-04-04T10:53:39.576Z,3064.00
2019-04-04T10:54:39.740Z,3176.00
2019-04-04T10:55:39.896Z,3056.00
2019-04-04T10:56:40.080Z,2808.00
2019-04-04T10:57:40.259Z,2672.00
2019-04-04T10:58:40.450Z,2524.00
2019-04-04T10:59:40.647Z,2444.00
2019-04-04T11:00:40.849Z,2376.00
2019-04-04T11:01:41.060Z,2372.00
2019-04-04T11:02:41.241Z,2316.00
2019-04-04T11:03:41.425Z,2140.00
2019-04-04T11:04:41.615Z,1960.00
2019-04-04T11:05:41.782Z,1804.00
2019-04-04T11:06:41.972Z,1700.00
2019-04-04T11:07:42.162Z,1720.00
2019-04-04T11:08:42.324Z,1748.00
2019-04-04T11:09:44.353Z,1708.00
2019-04-04T11:10:42.638Z,1628.00
2019-04-04T11:11:42.782Z,1668.00
2019-04-04T11:12:42.983Z,1868.00
2019-04-04T11:13:43.152Z,2044.00
2019-04-04T11:14:43.333Z,2100.00
2019-04-04T11:15:43.541Z,2068.00
2019-04-04T11:16:43.729Z,2004.00
2019-04-04T11:17:43.954Z,1940.00
2019-04-04T11:18:44.167Z,2044.00
2019-04-04T11:19:44.365Z,2312.00
2019-04-04T11:20:44.546Z,2472.00
2019-04-04T11:21:44.732Z,2568.00
2019-04-04T11:22:44.897Z,2600.00
2019-04-04T11:23:45.045Z,2488.00
2019-04-04T11:24:45.202Z,2444.00
2019-04-04T11:25:45.373Z,2552.00
2019-04-04T11:26:45.522Z,2808.00
2019-04-04T11:27:45.635Z,3168.00
2019-04-04T11:28:45.845Z,3432.00
2019-04-04T11:29:46.063Z,3508.00
2019-04-04T11:30:46.226Z,3432.00
2019-04-04T11:31:46.409Z,3332.00
2019-04-04T11:32:48.791Z,3204.00
2019-04-04T11:33:46.737Z,3040.00
2019-04-04T11:34:53.088Z,2836.00
2019-04-04T11:35:49.043Z,2616.00
2019-04-04T11:36:47.253Z,2432.00
2019-04-04T11:37:47.403Z,2268.00
2019-04-04T11:38:47.596Z,2128.00
2019-04-04T11:39:54.566Z,2004.00
2019-04-04T11:40:49.968Z,1844.00
2019-04-04T11:41:48.176Z,1816.00
2019-04-04T11:42:48.364Z,1984.00
2019-04-04T11:43:48.570Z,2208.00
2019-04-04T11:44:48.700Z,2356.00
2019-04-04T11:45:48.859Z,2404.00
2019-04-04T11:46:49.004Z,2428.00
2019-04-04T11:47:49.185Z,2480.00
2019-04-04T11:48:49.370Z,2596.00
2019-04-04T11:49:49.498Z,2776.00
2019-04-04T11:50:49.642Z,3020.00
2019-04-04T11:51:49.775Z,3236.00
2019-04-04T11:52:49.972Z,3408.00
2019-04-04T11:53:50.122Z,3548.00
2019-04-04T11:54:50.264Z,3716.00
2019-04-04T11:55:50.479Z,3820.00
2019-04-04T11:56:50.642Z,3732.00
2019-04-04T11:57:50.833Z,3508.00
2019-04-04T11:58:51.049Z,3192.00
2019-04-04T11:59:51.224Z,2924.00
2019-04-04T12:00:51.402Z,3020.00
2019-04-04T12:01:51.610Z,3332.00
2019-04-04T12:02:51.777Z,3528.00
2019-04-04T12:03:52.948Z,3636.00
2019-04-04T12:04:52.119Z,3728.00
2019-04-04T12:05:52.292Z,3868.00
2019-04-04T12:06:52.507Z,3952.00
2019-04-04T12:07:52.691Z,3944.00
2019-04-04T12:08:52.871Z,3852.00
2019-04-04T12:09:53.075Z,3788.00
2019-04-04T12:10:53.264Z,3588.00
2019-04-04T12:11:53.469Z,3356.00
2019-04-04T12:12:53.657Z,3240.00
2019-04-04T12:13:53.841Z,3116.00
2019-04-04T12:14:54.029Z,2996.00
2019-04-04T12:15:54.227Z,3060.00
2019-04-04T12:16:54.395Z,3268.00
2019-04-04T12:17:54.542Z,3500.00
2019-04-04T12:18:54.724Z,3752.00
2019-04-04T12:19:54.885Z,3980.00
2019-04-04T12:20:55.066Z,4184.00
2019-04-04T12:21:55.213Z,4344.00
2019-04-04T12:22:55.355Z,4364.00
2019-04-04T12:23:55.546Z,4056.00
2019-04-04T12:24:55.705Z,3728.00
2019-04-04T12:25:55.891Z,3504.00
2019-04-04T12:26:56.071Z,3308.00
2019-04-04T12:27:56.239Z,3088.00
2019-04-04T12:28:56.416Z,2872.00
2019-04-04T12:29:56.590Z,2832.00
2019-04-04T12:30:56.779Z,2780.00
2019-04-04T12:31:56.975Z,2956.00
2019-04-04T12:32:57.193Z,3388.00
2019-04-04T12:33:57.373Z,3604.00
2019-04-04T12:34:57.554Z,3716.00
2019-04-04T12:35:57.767Z,3804.00
2019-04-04T12:36:57.936Z,3652.00
2019-04-04T12:37:58.163Z,3252.00
2019-04-04T12:38:58.361Z,2992.00
2019-04-04T12:39:58.553Z,2904.00
2019-04-04T12:40:58.740Z,2932.00
2019-04-04T12:41:58.975Z,3036.00
2019-04-04T12:42:59.157Z,3192.00
2019-04-04T12:43:59.388Z,3416.00
2019-04-04T12:44:59.583Z,3624.00
2019-04-04T12:45:59.778Z,3744.00
2019-04-04T12:46:59.969Z,3872.00
2019-04-04T12:48:00.176Z,4020.00
2019-04-04T12:49:00.430Z,4148.00
2019-04-04T12:50:00.490Z,4304.00
2019-04-04T12:51:00.707Z,4632.00
2019-04-04T12:52:00.896Z,4848.00
2019-04-04T12:53:01.083Z,5008.00
2019-04-04T12:54:01.276Z,5160.00
2019-04-04T12:55:01.447Z,5196.00
2019-04-04T12:56:01.628Z,5000.00
2019-04-04T12:57:01.776Z,4608.00
2019-04-04T12:58:01.936Z,4276.00
2019-04-04T12:59:02.122Z,3996.00
2019-04-04T13:00:02.295Z,3824.00
2019-04-04T13:01:02.451Z,3688.00
2019-04-04T13:02:02.626Z,3560.00
2019-04-04T13:03:02.789Z,3524.00
2019-04-04T13:04:02.959Z,3676.00
2019-04-04T13:05:03.109Z,3992.00
2019-04-04T13:06:03.308Z,4288.00
2019-04-04T13:07:03.475Z,4608.00
2019-04-04T13:08:03.646Z,4656.00
2019-04-04T13:09:03.787Z,4440.00
2019-04-04T13:10:11.512Z,4008.00
2019-04-04T13:11:06.115Z,3608.00
2019-04-04T13:12:04.330Z,3524.00
2019-04-04T13:13:04.510Z,3616.00
2019-04-04T13:14:04.665Z,3628.00
2019-04-04T13:15:04.843Z,3680.00
2019-04-04T13:16:04.989Z,3760.00
2019-04-04T13:17:05.109Z,3700.00
2019-04-04T13:18:05.264Z,3568.00
2019-04-04T13:19:05.434Z,3700.00
2019-04-04T13:20:05.625Z,4100.00
2019-04-04T13:21:05.757Z,4196.00
2019-04-04T13:22:05.927Z,3748.00
2019-04-04T13:23:06.147Z,3524.00
2019-04-04T13:24:06.331Z,3184.00
2019-04-04T13:25:06.570Z,2840.00
2019-04-04T13:26:06.763Z,2600.00
2019-04-04T13:27:06.949Z,2408.00
2019-04-04T13:28:07.152Z,2480.00
2019-04-04T13:29:07.315Z,2528.00
2019-04-04T13:30:07.528Z,2620.00
2019-04-04T13:31:07.722Z,2724.00
2019-04-04T13:32:07.905Z,2680.00
2019-04-04T13:33:08.090Z,2524.00
2019-04-04T13:34:08.274Z,2300.00
2019-04-04T13:35:08.445Z,2200.00
2019-04-04T13:36:08.648Z,2176.00
2019-04-04T13:37:08.820Z,2212.00
2019-04-04T13:38:09.011Z,2240.00
2019-04-04T13:39:09.171Z,2248.00
2019-04-04T13:40:09.323Z,2304.00
2019-04-04T13:41:20.987Z,2392.00
2019-04-04T13:42:11.722Z,2476.00
2019-04-04T13:43:09.883Z,2548.00
2019-04-04T13:44:10.076Z,2576.00
2019-04-04T13:45:10.266Z,2544.00
2019-04-04T13:46:11.114Z,2516.00
2019-04-04T13:47:11.581Z,2500.00
2019-04-04T13:48:12.685Z,2488.00
2019-04-04T13:49:11.875Z,2492.00
2019-04-04T13:50:12.632Z,2524.00
2019-04-04T13:51:12.256Z,2580.00
2019-04-04T13:52:11.728Z,2500.00
2019-04-04T13:53:12.680Z,2244.00
2019-04-04T13:54:11.822Z,2096.00
2019-04-04T13:55:11.988Z,2092.00
2019-04-04T13:56:12.168Z,2160.00
2019-04-04T13:57:12.323Z,2232.00
2019-04-04T13:58:12.531Z,2304.00
2019-04-04T13:59:12.696Z,2344.00
2019-04-04T14:00:12.876Z,2388.00
2019-04-04T14:01:13.053Z,2452.00
2019-04-04T14:02:13.214Z,2492.00
2019-04-04T14:03:13.392Z,2496.00
2019-04-04T14:04:13.559Z,2476.00
2019-04-04T14:05:14.503Z,2476.00
2019-04-04T14:06:14.952Z,2432.00
2019-04-04T14:07:14.129Z,2380.00
2019-04-04T14:08:14.576Z,2380.00
2019-04-04T14:09:15.528Z,2392.00
2019-04-04T14:10:17.099Z,2420.00
2019-04-04T14:11:15.803Z,2472.00
2019-04-04T14:12:15.053Z,2508.00
2019-04-04T14:13:15.221Z,2516.00
2019-04-04T14:14:15.359Z,2556.00
2019-04-04T14:15:15.525Z,2628.00
2019-04-04T14:16:15.661Z,2616.00
2019-04-04T14:17:15.810Z,2460.00
2019-04-04T14:18:15.970Z,2276.00
2019-04-04T14:19:16.181Z,2268.00
2019-04-04T14:20:16.357Z,2304.00
2019-04-04T14:21:16.521Z,2256.00
2019-04-04T14:22:16.647Z,2276.00
2019-04-04T14:23:16.804Z,2380.00
2019-04-04T14:24:16.960Z,2532.00
2019-04-04T14:25:17.151Z,2676.00
2019-04-04T14:26:17.290Z,2716.00
2019-04-04T14:27:17.434Z,2684.00
2019-04-04T14:28:17.582Z,2608.00
2019-04-04T14:29:27.404Z,2584.00
2019-04-04T14:30:19.924Z,2704.00
2019-04-04T14:31:18.155Z,2988.00
2019-04-04T14:32:21.019Z,3296.00
2019-04-04T14:33:18.519Z,3572.00
2019-04-04T14:34:18.676Z,3744.00
2019-04-04T14:35:18.834Z,3832.00
2019-04-04T14:36:19.031Z,4012.00
2019-04-04T14:37:19.161Z,4276.00
2019-04-04T14:38:19.315Z,4476.00
2019-04-04T14:39:19.447Z,4572.00
2019-04-04T14:40:19.594Z,4648.00
2019-04-04T14:41:19.737Z,4720.00
2019-04-04T14:42:19.913Z,4740.00
2019-04-04T14:43:20.090Z,4640.00
2019-04-04T14:44:20.255Z,4536.00
2019-04-04T14:45:20.400Z,4416.00
2019-04-04T14:46:20.528Z,4300.00
2019-04-04T14:47:20.717Z,4244.00
2019-04-04T14:48:20.880Z,4260.00
2019-04-04T14:49:21.083Z,4200.00
2019-04-04T14:50:21.232Z,3948.00
2019-04-04T14:51:21.383Z,3632.00
2019-04-04T14:52:24.107Z,3376.00
2019-04-04T14:53:21.761Z,3140.00
2019-04-04T14:54:21.956Z,2996.00
2019-04-04T14:55:22.140Z,2816.00
2019-04-04T14:56:22.328Z,2556.00
2019-04-04T14:57:22.535Z,2332.00
2019-04-04T14:58:22.689Z,2168.00
2019-04-04T14:59:22.856Z,2084.00
2019-04-04T15:00:23.042Z,2068.00
2019-04-04T15:01:23.204Z,2076.00
2019-04-04T15:02:23.414Z,2068.00
2019-04-04T15:03:23.568Z,2012.00
2019-04-04T15:04:23.740Z,1908.00
2019-04-04T15:05:23.915Z,1776.00
2019-04-04T15:06:24.076Z,1664.00
2019-04-04T15:07:24.275Z,1596.00
2019-04-04T15:08:24.413Z,1544.00
2019-04-04T15:09:24.579Z,1492.00
2019-04-04T15:10:24.734Z,1432.00
2019-04-04T15:11:25.926Z,1392.00
2019-04-04T15:12:25.093Z,1340.00
2019-04-04T15:13:25.281Z,1368.00
2019-04-04T15:14:25.492Z,1388.00
2019-04-04T15:15:26.430Z,1348.00
2019-04-04T15:16:26.824Z,1404.00
2019-04-04T15:17:25.942Z,1436.00
2019-04-04T15:18:26.106Z,1468.00
2019-04-04T15:19:26.271Z,1508.00
2019-04-04T15:20:26.421Z,1572.00
2019-04-04T15:21:26.572Z,1676.00
2019-04-04T15:22:26.796Z,1776.00
2019-04-04T15:23:26.970Z,1884.00
2019-04-04T15:24:27.128Z,1920.00
2019-04-04T15:25:27.303Z,1912.00
2019-04-04T15:26:27.506Z,1944.00
2019-04-04T15:27:27.702Z,2036.00
2019-04-04T15:28:27.907Z,2192.00
2019-04-04T15:29:28.097Z,2392.00
2019-04-04T15:30:28.311Z,2628.00
2019-04-04T15:31:28.487Z,2736.00
2019-04-04T15:32:28.647Z,2708.00
2019-04-04T15:33:28.851Z,2592.00
2019-04-04T15:34:29.014Z,2460.00
2019-04-04T15:35:29.224Z,2344.00
2019-04-04T15:36:29.424Z,2256.00
2019-04-04T15:37:30.613Z,2192.00
2019-04-04T15:38:29.776Z,2192.00
2019-04-04T15:39:29.964Z,2288.00
2019-04-04T15:40:30.197Z,2456.00
2019-04-04T15:41:36.689Z,2608.00
2019-04-04T15:42:32.513Z,2728.00
2019-04-04T15:43:30.654Z,2856.00
2019-04-04T15:44:30.834Z,2904.00
2019-04-04T15:45:31.050Z,2792.00
2019-04-04T15:46:31.252Z,2536.00
2019-04-04T15:47:31.508Z,2276.00
2019-04-04T15:48:31.578Z,2148.00
2019-04-04T15:49:31.757Z,2136.00
2019-04-04T15:50:31.939Z,2196.00
2019-04-04T15:51:32.159Z,2256.00
2019-04-04T15:52:32.314Z,2304.00
2019-04-04T15:53:32.492Z,2324.00
2019-04-04T15:54:32.651Z,2320.00
2019-04-04T15:55:32.810Z,2344.00
2019-04-04T15:56:33.003Z,2460.00
2019-04-04T15:57:33.198Z,2712.00
2019-04-04T15:58:33.370Z,3008.00
2019-04-04T15:59:33.610Z,3252.00
2019-04-04T16:00:33.774Z,3240.00
2019-04-04T16:01:33.976Z,3036.00
2019-04-04T16:02:34.142Z,2800.00
2019-04-04T16:03:34.338Z,2576.00
2019-04-04T16:04:34.517Z,2364.00
2019-04-04T16:05:34.695Z,2172.00
2019-04-04T16:06:34.916Z,2024.00
2019-04-04T16:07:35.101Z,1888.00
2019-04-04T16:08:35.308Z,1740.00
2019-04-04T16:09:36.002Z,1556.00
2019-04-04T16:10:35.643Z,1388.00
2019-04-04T16:11:48.490Z,1252.00
2019-04-04T16:12:36.992Z,1108.00
2019-04-04T16:13:36.135Z,976.00
2019-04-04T16:14:36.369Z,888.00
2019-04-04T16:15:36.536Z,824.00
2019-04-04T16:16:36.710Z,792.00
2019-04-04T16:17:37.905Z,800.00
2019-04-04T16:18:37.031Z,820.00
2019-04-04T16:19:37.247Z,864.00
2019-04-04T16:20:37.407Z,932.00
2019-04-04T16:21:37.582Z,1012.00
2019-04-04T16:22:37.765Z,1076.00
2019-04-04T16:23:37.923Z,1116.00
2019-04-04T16:24:38.146Z,1144.00
2019-04-04T16:25:38.334Z,1132.00
2019-04-04T16:26:38.517Z,1092.00
2019-04-04T16:27:38.693Z,1064.00
2019-04-04T16:28:38.870Z,1036.00
2019-04-04T16:29:39.058Z,984.00
2019-04-04T16:30:39.215Z,956.00
2019-04-04T16:31:39.363Z,944.00
2019-04-04T16:32:39.524Z,956.00
2019-04-04T16:33:40.686Z,972.00
2019-04-04T16:34:39.951Z,984.00
2019-04-04T16:35:40.148Z,992.00
2019-04-04T16:36:40.294Z,988.00
2019-04-04T16:37:40.455Z,980.00
2019-04-04T16:38:40.599Z,992.00
2019-04-04T16:39:40.788Z,1036.00
2019-04-04T16:40:40.936Z,1092.00
2019-04-04T16:41:41.112Z,1132.00
2019-04-04T16:42:41.286Z,1156.00
2019-04-04T16:43:41.449Z,1208.00
2019-04-04T16:44:41.618Z,1300.00
2019-04-04T16:45:41.797Z,1404.00
2019-04-04T16:46:41.931Z,1484.00
2019-04-04T16:47:42.084Z,1564.00
2019-04-04T16:48:42.236Z,1624.00
2019-04-04T16:49:42.397Z,1644.00
2019-04-04T16:50:42.540Z,1628.00
2019-04-04T16:51:42.688Z,1596.00
2019-04-04T16:52:42.834Z,1568.00
2019-04-04T16:53:43.007Z,1544.00
2019-04-04T16:54:43.146Z,1504.00
2019-04-04T16:55:43.290Z,1424.00
2019-04-04T16:56:43.456Z,1308.00
2019-04-04T16:57:43.780Z,1176.00
2019-04-04T16:58:43.807Z,1040.00
2019-04-04T16:59:43.945Z,892.00
2019-04-04T17:00:45.118Z,772.00
2019-04-04T17:01:44.223Z,676.00
2019-04-04T17:02:44.346Z,592.00
2019-04-04T17:03:44.517Z,544.00
2019-04-04T17:04:44.704Z,528.00
2019-04-04T17:05:44.874Z,528.00
2019-04-04T17:06:45.092Z,520.00
2019-04-04T17:07:45.285Z,520.00
2019-04-04T17:08:45.459Z,500.00
2019-04-04T17:09:45.647Z,508.00
2019-04-04T17:10:45.844Z,512.00
2019-04-04T17:11:46.024Z,520.00
2019-04-04T17:12:46.191Z,544.00
2019-04-04T17:13:46.391Z,572.00
2019-04-04T17:14:46.595Z,576.00
2019-04-04T17:15:46.766Z,564.00
2019-04-04T17:16:46.965Z,540.00
2019-04-04T17:17:47.150Z,520.00
2019-04-04T17:18:47.342Z,512.00
2019-04-04T17:19:47.548Z,516.00
2019-04-04T17:20:47.758Z,512.00
2019-04-04T17:21:47.957Z,500.00
2019-04-04T17:22:48.185Z,496.00
2019-04-04T17:23:48.360Z,500.00
2019-04-04T17:24:48.555Z,504.00
2019-04-04T17:25:48.766Z,524.00
2019-04-04T17:26:48.902Z,560.00
2019-04-04T17:27:49.045Z,612.00
2019-04-04T17:28:49.194Z,676.00
2019-04-04T17:29:49.752Z,748.00
2019-04-04T17:30:49.621Z,800.00
2019-04-04T17:31:49.796Z,832.00
2019-04-04T17:32:50.330Z,812.00
2019-04-04T17:33:50.403Z,760.00
2019-04-04T17:34:50.330Z,696.00
2019-04-04T17:35:51.001Z,632.00
2019-04-04T17:36:50.671Z,568.00
2019-04-04T17:37:50.852Z,504.00
2019-04-04T17:38:51.049Z,448.00
2019-04-04T17:39:51.210Z,396.00
2019-04-04T17:40:51.379Z,348.00
2019-04-04T17:41:52.047Z,304.00
2019-04-04T17:42:52.128Z,264.00
2019-04-04T17:43:51.922Z,232.00
2019-04-04T17:44:52.574Z,208.00
2019-04-04T17:45:52.146Z,188.00
2019-04-04T17:46:52.727Z,176.00
2019-04-04T17:47:53.560Z,172.00
2019-04-04T17:48:52.791Z,164.00
2019-04-04T17:49:52.853Z,156.00
2019-04-04T17:50:53.048Z,148.00
2019-04-04T17:51:53.622Z,140.00
2019-04-04T17:52:53.916Z,136.00
2019-04-04T17:53:53.742Z,124.00
2019-04-04T17:54:54.752Z,116.00
2019-04-04T17:55:55.536Z,116.00
2019-04-04T17:56:55.070Z,108.00
2019-04-04T17:57:54.412Z,100.00
2019-04-04T17:58:54.405Z,92.00
2019-04-04T17:59:54.573Z,88.00
2019-04-04T18:00:54.752Z,84.00
2019-04-04T18:01:54.965Z,80.00
2019-04-04T18:02:55.172Z,76.00
2019-04-04T18:03:55.333Z,64.00
2019-04-04T18:04:55.536Z,60.00
2019-04-04T18:05:55.732Z,48.00
2019-04-04T18:06:55.920Z,48.00
2019-04-04T18:07:56.116Z,36.00
2019-04-04T18:08:56.266Z,32.00
2019-04-04T18:09:56.477Z,28.00
2019-04-04T18:10:56.652Z,28.00
2019-04-04T18:11:56.793Z,24.00
2019-04-04T18:12:56.955Z,24.00
2019-04-04T18:13:57.112Z,20.00
2019-04-04T18:14:57.303Z,16.00
2019-04-04T18:15:57.451Z,16.00
2019-04-04T18:16:57.609Z,16.00
2019-04-04T18:17:57.785Z,12.00
2019-04-04T18:18:57.955Z,12.00
2019-04-04T18:19:58.103Z,12.00
2019-04-04T18:20:58.280Z,8.00
2019-04-04T18:21:58.484Z,8.00
2019-04-04T18:22:58.642Z,4.00
2019-04-04T18:23:58.808Z,4.00
2019-04-04T18:24:59.016Z,8.00
2019-04-04T18:25:59.215Z,4.00
2019-04-04T18:26:59.375Z,4.00
2019-04-04T18:27:59.650Z,4.00
2019-04-04T18:28:59.807Z,0.00
2019-04-04T18:30:00.173Z,4.00
2019-04-04T18:31:00.254Z,0.00
2019-04-04T18:32:00.495Z,0.00
2019-04-04T18:33:00.667Z,0.00
2019-04-04T18:34:00.934Z,0.00
2019-04-04T18:35:01.346Z,0.00
2019-04-04T18:36:01.345Z,0.00
2019-04-04T18:37:01.435Z,0.00
2019-04-04T18:38:01.626Z,0.00
2019-04-04T18:39:01.839Z,0.00
2019-04-04T18:40:02.034Z,0.00
2019-04-04T18:41:02.256Z,0.00
2019-04-04T18:42:02.435Z,0.00
2019-04-04T18:43:02.624Z,0.00
2019-04-04T18:44:02.808Z,0.00
2019-04-04T18:45:03.001Z,0.00
2019-04-04T18:46:03.203Z,0.00
2019-04-04T18:47:03.396Z,0.00
2019-04-04T18:48:03.589Z,0.00
2019-04-04T18:49:03.760Z,0.00
2019-04-04T18:50:03.932Z,0.00
2019-04-04T18:51:04.103Z,0.00
2019-04-04T18:52:04.272Z,0.00
2019-04-04T18:53:04.524Z,0.00
2019-04-04T18:54:04.683Z,0.00
2019-04-04T18:55:04.824Z,0.00
2019-04-04T18:56:05.970Z,0.00
2019-04-04T18:57:05.210Z,0.00
2019-04-04T18:58:05.372Z,0.00
2019-04-04T18:59:05.521Z,0.00
2019-04-04T19:00:05.640Z,0.00
2019-04-04T19:01:05.786Z,0.00
2019-04-04T19:02:05.996Z,0.00
2019-04-04T19:03:06.109Z,0.00
2019-04-04T19:04:06.385Z,0.00
2019-04-04T19:05:06.543Z,0.00
2019-04-04T19:06:06.716Z,0.00
2019-04-04T19:07:06.886Z,0.00
2019-04-04T19:08:07.033Z,0.00
2019-04-04T19:09:14.813Z,0.00
2019-04-04T19:10:09.384Z,0.00
2019-04-04T19:11:07.591Z,0.00
2019-04-04T19:12:07.739Z,0.00
2019-04-04T19:13:07.918Z,0.00
2019-04-04T19:14:08.134Z,0.00
2019-04-04T19:15:08.325Z,0.00
2019-04-04T19:16:08.519Z,0.00
2019-04-04T19:17:08.675Z,0.00
2019-04-04T19:18:08.793Z,0.00
2019-04-04T19:19:08.939Z,0.00
2019-04-04T19:20:10.212Z,0.00
2019-04-04T19:21:10.308Z,0.00
2019-04-04T19:22:09.543Z,0.00
2019-04-04T19:23:09.692Z,0.00
2019-04-04T19:24:09.836Z,0.00
2019-04-04T19:25:09.991Z,0.00
2019-04-04T19:26:10.163Z,0.00
2019-04-04T19:27:10.353Z,0.00
2019-04-04T19:28:10.558Z,0.00
2019-04-04T19:29:11.769Z,0.00
2019-04-04T19:30:10.904Z,0.00
2019-04-04T19:31:11.118Z,0.00
2019-04-04T19:32:11.289Z,0.00
2019-04-04T19:33:11.487Z,0.00
2019-04-04T19:34:11.726Z,0.00
2019-04-04T19:35:11.934Z,0.00
2019-04-04T19:36:12.148Z,0.00
2019-04-04T19:37:12.362Z,0.00
2019-04-04T19:38:12.580Z,0.00
2019-04-04T19:39:12.790Z,0.00
2019-04-04T19:40:12.990Z,0.00
2019-04-04T19:41:13.233Z,0.00
2019-04-04T19:42:13.429Z,0.00
2019-04-04T19:43:18.371Z,0.00
2019-04-04T19:44:14.833Z,0.00
2019-04-04T19:45:14.012Z,0.00
2019-04-04T19:46:14.241Z,0.00
2019-04-04T19:47:14.455Z,0.00
2019-04-04T19:48:14.653Z,0.00
2019-04-04T19:49:14.856Z,0.00
2019-04-04T19:50:15.077Z,0.00
2019-04-04T19:51:15.294Z,0.00
2019-04-04T19:52:15.516Z,0.00
2019-04-04T19:53:15.725Z,0.00
2019-04-04T19:54:15.902Z,0.00
2019-04-04T19:55:16.097Z,0.00
2019-04-04T19:56:16.275Z,0.00
2019-04-04T19:57:17.033Z,0.00
2019-04-04T19:58:17.646Z,0.00
2019-04-04T19:59:16.795Z,0.00
2019-04-04T20:00:16.998Z,0.00
2019-04-04T20:01:17.173Z,0.00
2019-04-04T20:02:18.400Z,0.00
2019-04-04T20:03:17.629Z,0.00
2019-04-04T20:04:17.814Z,0.00
2019-04-04T20:05:17.998Z,0.00
2019-04-04T20:06:18.166Z,0.00
2019-04-04T20:07:18.356Z,0.00
2019-04-04T20:08:18.567Z,0.00
2019-04-04T20:09:18.753Z,0.00
2019-04-04T20:10:18.932Z,0.00
2019-04-04T20:11:19.114Z,0.00
2019-04-04T20:12:19.290Z,0.00
2019-04-04T20:13:30.388Z,0.00
2019-04-04T20:14:21.616Z,0.00
2019-04-04T20:15:19.861Z,0.00
2019-04-04T20:16:20.075Z,0.00
2019-04-04T20:17:20.397Z,0.00
2019-04-04T20:18:20.413Z,0.00
2019-04-04T20:19:20.562Z,0.00
2019-04-04T20:20:20.751Z,0.00
2019-04-04T20:21:20.913Z,0.00
2019-04-04T20:22:21.059Z,0.00
2019-04-04T20:23:21.244Z,0.00
2019-04-04T20:24:21.433Z,0.00
2019-04-04T20:25:21.635Z,0.00
2019-04-04T20:26:21.814Z,0.00
2019-04-04T20:27:22.031Z,0.00
2019-04-04T20:28:22.239Z,0.00
2019-04-04T20:29:22.448Z,0.00
2019-04-04T20:30:22.679Z,0.00
2019-04-04T20:31:22.864Z,0.00
2019-04-04T20:32:23.108Z,0.00
2019-04-04T20:33:23.369Z,0.00
2019-04-04T20:34:24.482Z,0.00
2019-04-04T20:35:23.650Z,0.00
2019-04-04T20:36:24.176Z,0.00
2019-04-04T20:37:24.066Z,0.00
2019-04-04T20:38:24.226Z,0.00
2019-04-04T20:39:24.311Z,0.00
2019-04-04T20:40:24.569Z,0.00
2019-04-04T20:41:24.702Z,0.00
2019-04-04T20:42:24.838Z,0.00
2019-04-04T20:43:25.026Z,0.00
2019-04-04T20:44:25.259Z,0.00
2019-04-04T20:45:25.355Z,0.00
2019-04-04T20:46:25.554Z,0.00
2019-04-04T20:47:25.743Z,0.00
2019-04-04T20:48:25.915Z,0.00
2019-04-04T20:49:26.168Z,0.00
2019-04-04T20:50:26.281Z,0.00
2019-04-04T20:51:26.507Z,0.00
2019-04-04T20:52:26.715Z,0.00
2019-04-04T20:53:26.936Z,0.00
2019-04-04T20:54:27.152Z,0.00
2019-04-04T20:55:27.381Z,0.00
2019-04-04T20:56:27.561Z,0.00
2019-04-04T20:57:28.709Z,0.00
2019-04-04T20:58:31.145Z,0.00
2019-04-04T20:59:28.442Z,0.00
2019-04-04T21:00:28.301Z,0.00
2019-04-04T21:01:28.510Z,0.00
2019-04-04T21:02:28.680Z,0.00
2019-04-04T21:03:28.879Z,0.00
2019-04-04T21:04:29.059Z,0.00
2019-04-04T21:05:29.246Z,0.00
2019-04-04T21:06:29.493Z,0.00
2019-04-04T21:07:29.584Z,0.00
2019-04-04T21:08:29.781Z,0.00
2019-04-04T21:09:29.988Z,0.00
2019-04-04T21:10:30.245Z,0.00
2019-04-04T21:11:30.310Z,0.00
2019-04-04T21:12:30.489Z,0.00
2019-04-04T21:13:30.669Z,0.00
2019-04-04T21:14:30.844Z,0.00
2019-04-04T21:15:31.034Z,0.00
2019-04-04T21:16:31.217Z,0.00
2019-04-04T21:17:31.420Z,0.00
2019-04-04T21:18:31.601Z,0.00
2019-04-04T21:19:31.818Z,0.00
2019-04-04T21:20:31.994Z,0.00
2019-04-04T21:21:32.150Z,0.00
2019-04-04T21:22:33.339Z,0.00
2019-04-04T21:23:32.467Z,0.00
2019-04-04T21:24:32.645Z,0.00
2019-04-04T21:25:32.844Z,0.00
2019-04-04T21:26:33.026Z,0.00
2019-04-04T21:27:33.296Z,0.00
2019-04-04T21:28:33.359Z,0.00
2019-04-04T21:29:33.526Z,0.00
2019-04-04T21:30:33.700Z,0.00
2019-04-04T21:31:33.855Z,0.00
2019-04-04T21:32:34.049Z,0.00
2019-04-04T21:33:34.213Z,0.00
2019-04-04T21:34:34.408Z,0.00
2019-04-04T21:35:34.575Z,0.00
2019-04-04T21:36:34.755Z,0.00
2019-04-04T21:37:34.913Z,0.00
2019-04-04T21:38:35.167Z,0.00
2019-04-04T21:39:35.343Z,0.00
2019-04-04T21:40:35.507Z,0.00
2019-04-04T21:41:35.664Z,0.00
2019-04-04T21:42:35.852Z,0.00
2019-04-04T21:43:36.086Z,0.00
2019-04-04T21:44:36.301Z,0.00
2019-04-04T21:45:36.460Z,0.00
2019-04-04T21:46:36.625Z,0.00
2019-04-04T21:47:37.814Z,0.00
2019-04-04T21:48:36.998Z,0.00
2019-04-04T21:49:37.189Z,0.00
2019-04-04T21:50:38.357Z,0.00
2019-04-04T21:51:38.560Z,0.00
2019-04-04T21:52:37.719Z,0.00
2019-04-04T21:53:37.918Z,0.00
2019-04-04T21:54:38.104Z,0.00
2019-04-04T21:55:38.307Z,0.00
2019-04-04T21:56:38.518Z,0.00
2019-04-04T21:57:38.740Z,0.00
2019-04-04T21:58:38.946Z,0.00